createdAt,value
2023-01-13T00:00:29.878Z,21.39
2023-01-13T00:02:56.288Z,21.40
2023-01-13T04:08:59.657Z,9.09
2023-01-13T04:11:26.050Z,9.16
2023-01-13T04:13:52.453Z,8.90
2023-01-13T04:16:18.889Z,9.05
2023-01-13T04:18:45.284Z,8.68
2023-01-13T04:21:11.678Z,8.34
2023-01-13T04:23:38.072Z,8.70
2023-01-13T04:26:04.461Z,8.11
2023-01-13T04:28:30.842Z,8.30
2023-01-13T04:30:57.269Z,8.39
2023-01-13T04:33:23.674Z,8.77
2023-01-13T04:35:50.082Z,7.98
2023-01-13T04:38:16.471Z,8.00
2023-01-13T04:40:42.856Z,8.11
2023-01-13T04:43:09.255Z,8.13
2023-01-13T04:45:35.636Z,8.21
2023-01-13T04:48:02.033Z,8.06
2023-01-13T04:50:28.408Z,7.94
2023-01-13T04:52:54.803Z,7.80
2023-01-13T04:55:21.183Z,8.12
2023-01-13T04:57:47.551Z,7.65
2023-01-13T05:00:13.930Z,7.80
2023-01-13T05:02:40.296Z,7.39
2023-01-13T05:05:06.713Z,7.59
2023-01-13T05:07:33.130Z,7.42
2023-01-13T05:09:59.534Z,7.69
2023-01-13T05:12:25.907Z,7.55
2023-01-13T05:14:52.293Z,7.20
2023-01-13T05:17:18.681Z,7.00
2023-01-13T05:19:45.058Z,7.03
2023-01-13T05:22:11.441Z,7.36
2023-01-13T05:24:37.816Z,7.01
2023-01-13T05:27:04.233Z,7.00
2023-01-13T05:29:30.606Z,7.32
2023-01-13T05:31:56.981Z,6.72
2023-01-13T05:34:23.374Z,6.70
2023-01-13T05:36:49.743Z,6.91
2023-01-13T05:39:16.132Z,6.76
2023-01-13T05:41:42.511Z,6.40
2023-01-13T05:44:08.891Z,6.12
2023-01-13T05:46:35.292Z,6.14
2023-01-13T05:49:01.696Z,5.85
2023-01-13T05:51:28.196Z,6.13
2023-01-13T05:53:54.622Z,6.09
2023-01-13T05:56:21.000Z,5.84
2023-01-13T05:58:47.389Z,5.57
2023-01-13T06:01:13.816Z,5.72
2023-01-13T06:03:40.215Z,5.63
2023-01-13T06:06:06.607Z,5.63
2023-01-13T06:08:32.984Z,5.90
2023-01-13T06:10:59.374Z,5.83
2023-01-13T06:13:25.771Z,5.28
2023-01-13T06:15:52.240Z,5.36
2023-01-13T06:18:18.655Z,5.25
2023-01-13T06:20:45.035Z,5.24
2023-01-13T06:23:11.409Z,5.07
2023-01-13T06:25:37.800Z,5.09
2023-01-13T06:28:04.206Z,5.09
2023-01-13T06:30:30.582Z,5.01
2023-01-13T06:32:56.995Z,4.96
2023-01-13T06:35:23.376Z,5.08
2023-01-13T06:37:49.762Z,4.87
2023-01-13T06:40:16.192Z,4.94
2023-01-13T06:42:42.575Z,4.98
2023-01-13T06:45:08.980Z,4.76
2023-01-13T06:47:35.356Z,4.57
2023-01-13T06:50:01.777Z,4.73
2023-01-13T06:52:28.163Z,4.61
2023-01-13T06:54:54.538Z,4.60
2023-01-13T06:57:20.939Z,4.75
2023-01-13T06:59:47.337Z,4.72
2023-01-13T07:02:13.831Z,4.47
2023-01-13T07:04:40.281Z,4.38
2023-01-13T07:07:06.659Z,4.52
2023-01-13T07:09:33.050Z,4.21
2023-01-13T07:11:59.426Z,4.17
2023-01-13T07:14:25.805Z,4.30
2023-01-13T07:16:52.228Z,4.18
2023-01-13T07:19:19.662Z,4.17
2023-01-13T07:21:47.142Z,4.42
2023-01-13T07:24:13.538Z,4.10
2023-01-13T07:26:39.946Z,4.12
2023-01-13T07:29:06.346Z,4.10
2023-01-13T07:31:32.769Z,4.22
2023-01-13T07:33:59.931Z,4.23
2023-01-13T07:36:26.325Z,4.04
2023-01-13T07:38:54.746Z,4.18
2023-01-13T07:41:21.318Z,4.07
2023-01-13T07:43:47.720Z,3.92
2023-01-13T07:46:14.175Z,4.11
2023-01-13T07:48:40.585Z,3.80
2023-01-13T07:51:06.961Z,3.65
2023-01-13T07:53:33.364Z,3.89
2023-01-13T07:55:59.786Z,3.86
2023-01-13T07:58:26.181Z,3.64
2023-01-13T08:00:52.662Z,3.99
2023-01-13T08:03:19.134Z,3.66
2023-01-13T08:05:45.513Z,3.72
2023-01-13T08:08:11.903Z,3.64
2023-01-13T08:10:38.296Z,3.57
2023-01-13T08:13:04.699Z,3.52
2023-01-13T08:15:31.079Z,3.60
2023-01-13T08:17:57.467Z,3.49
2023-01-13T08:20:23.838Z,3.56
2023-01-13T08:22:50.258Z,3.48
2023-01-13T08:25:16.644Z,3.49
2023-01-13T08:27:43.031Z,3.42
2023-01-13T08:30:09.450Z,3.11
2023-01-13T08:32:35.954Z,3.24
2023-01-13T08:35:02.372Z,3.17
2023-01-13T08:37:28.789Z,3.32
2023-01-13T08:39:55.164Z,3.11
2023-01-13T08:42:21.638Z,3.21
2023-01-13T08:44:48.064Z,3.23
2023-01-13T08:47:14.435Z,3.07
2023-01-13T08:49:40.823Z,3.00
2023-01-13T08:52:07.207Z,3.31
2023-01-13T08:54:33.601Z,3.67
2023-01-13T08:57:00.089Z,8.91
2023-01-13T08:59:26.509Z,12.92
2023-01-13T09:01:53.043Z,15.15
2023-01-13T09:04:19.647Z,14.81
2023-01-13T09:06:46.171Z,14.30
2023-01-13T09:09:12.665Z,13.81
2023-01-13T09:11:39.081Z,13.36
2023-01-13T09:14:05.473Z,12.62
2023-01-13T09:16:31.881Z,12.56
2023-01-13T09:18:58.282Z,11.93
2023-01-13T09:21:24.670Z,11.37
2023-01-13T09:23:51.096Z,10.82
2023-01-13T09:26:17.499Z,10.46
2023-01-13T09:28:43.887Z,10.36
2023-01-13T09:31:10.317Z,9.69
2023-01-13T09:33:36.756Z,9.79
2023-01-13T09:36:03.139Z,9.46
2023-01-13T09:38:29.528Z,9.07
2023-01-13T09:40:55.944Z,8.81
2023-01-13T09:43:22.330Z,8.65
2023-01-13T09:45:48.710Z,8.86
2023-01-13T09:48:15.115Z,8.09
2023-01-13T09:50:41.495Z,7.74
2023-01-13T09:53:07.889Z,7.96
2023-01-13T09:55:34.277Z,7.70
2023-01-13T09:58:00.641Z,7.42
2023-01-13T10:00:27.035Z,7.21
2023-01-13T10:02:53.410Z,7.50
2023-01-13T10:05:19.814Z,6.90
2023-01-13T10:07:46.307Z,6.89
2023-01-13T10:10:12.873Z,6.86
2023-01-13T10:12:39.464Z,6.84
2023-01-13T10:15:05.865Z,6.63
2023-01-13T10:17:32.242Z,6.41
2023-01-13T10:19:58.625Z,6.13
2023-01-13T10:22:25.029Z,6.17
2023-01-13T10:24:51.528Z,6.03
2023-01-13T10:27:17.949Z,6.03
2023-01-13T10:29:44.344Z,5.86
2023-01-13T10:32:10.720Z,5.63
2023-01-13T10:34:37.104Z,5.44
2023-01-13T10:37:03.505Z,5.52
2023-01-13T10:39:29.888Z,5.24
2023-01-13T10:41:56.272Z,5.83
2023-01-13T10:44:22.690Z,5.39
2023-01-13T10:46:49.091Z,5.18
2023-01-13T10:49:15.471Z,5.26
2023-01-13T10:51:41.863Z,5.01
2023-01-13T10:54:08.226Z,5.08
2023-01-13T10:56:34.614Z,5.14
2023-01-13T10:59:01.018Z,4.63
2023-01-13T11:01:27.521Z,4.83
2023-01-13T11:03:53.975Z,4.65
2023-01-13T11:06:20.393Z,4.86
2023-01-13T11:08:46.820Z,5.15
2023-01-13T11:11:13.194Z,5.61
2023-01-13T11:13:39.590Z,6.21
2023-01-13T11:16:06.105Z,6.51
2023-01-13T11:18:32.475Z,7.38
2023-01-13T11:20:58.849Z,8.73
2023-01-13T11:23:25.234Z,9.77
2023-01-13T11:25:51.640Z,12.08
2023-01-13T11:28:18.026Z,13.16
2023-01-13T11:30:44.417Z,13.85
2023-01-13T11:33:10.828Z,15.31
2023-01-13T11:35:37.231Z,16.50
2023-01-13T11:38:03.650Z,16.47
2023-01-13T11:40:30.058Z,19.76
2023-01-13T11:42:56.467Z,21.95
2023-01-13T11:45:22.854Z,26.34
2023-01-13T11:47:49.263Z,28.61
2023-01-13T11:50:15.696Z,31.50
2023-01-13T11:52:42.134Z,34.10
2023-01-13T11:55:08.530Z,39.34
2023-01-13T11:57:34.917Z,41.53
2023-01-13T12:00:01.420Z,43.22
2023-01-13T12:02:27.896Z,46.43
2023-01-13T12:04:54.311Z,46.84
2023-01-13T12:07:23.038Z,46.90
2023-01-13T12:09:49.721Z,47.23
2023-01-13T12:12:16.136Z,48.41
2023-01-13T12:14:42.524Z,50.48
2023-01-13T12:17:08.948Z,50.81
2023-01-13T12:19:35.342Z,50.08
2023-01-13T12:22:01.740Z,52.39
2023-01-13T12:24:28.144Z,51.97
2023-01-13T12:26:54.539Z,50.25
2023-01-13T12:29:20.962Z,48.64
2023-01-13T12:31:47.357Z,49.51
2023-01-13T12:34:13.735Z,47.43
2023-01-13T12:36:40.135Z,46.67
2023-01-13T12:39:06.529Z,46.21
2023-01-13T12:41:32.934Z,44.73
2023-01-13T12:43:59.334Z,43.75
2023-01-13T12:46:25.725Z,44.77
2023-01-13T12:48:52.138Z,43.03
2023-01-13T12:51:18.597Z,43.06
2023-01-13T12:53:45.011Z,42.58
2023-01-13T12:56:11.433Z,41.46
2023-01-13T12:58:37.827Z,41.15
2023-01-13T13:01:04.324Z,40.74
2023-01-13T13:03:30.770Z,40.99
2023-01-13T13:05:57.171Z,39.21
2023-01-13T13:08:23.574Z,39.83
2023-01-13T13:10:49.976Z,38.71
2023-01-13T13:13:16.414Z,37.63
2023-01-13T13:15:42.858Z,37.07
2023-01-13T13:18:09.258Z,36.37
2023-01-13T13:20:35.652Z,36.20
2023-01-13T13:23:02.045Z,36.08
2023-01-13T13:25:28.456Z,35.01
2023-01-13T13:27:54.852Z,35.81
2023-01-13T13:30:21.246Z,34.74
2023-01-13T13:32:47.655Z,34.40
2023-01-13T13:35:14.064Z,33.69
2023-01-13T13:37:40.462Z,32.80
2023-01-13T13:40:06.882Z,32.33
2023-01-13T13:42:33.473Z,31.68
2023-01-13T13:44:59.902Z,31.68
2023-01-13T13:47:26.328Z,30.68
2023-01-13T13:49:52.723Z,30.94
2023-01-13T13:52:19.188Z,30.54
2023-01-13T13:54:45.707Z,29.62
2023-01-13T13:57:12.107Z,29.37
2023-01-13T13:59:38.511Z,29.32
2023-01-13T14:02:05.048Z,28.09
2023-01-13T14:04:31.580Z,28.29
2023-01-13T14:06:57.997Z,28.04
2023-01-13T14:09:24.376Z,27.56
2023-01-13T14:11:50.793Z,26.69
2023-01-13T14:14:17.284Z,26.67
2023-01-13T14:16:43.685Z,26.62
2023-01-13T14:19:10.093Z,26.03
2023-01-13T14:21:36.493Z,25.41
2023-01-13T14:24:02.867Z,24.68
2023-01-13T14:26:29.257Z,24.78
2023-01-13T14:28:55.644Z,24.16
2023-01-13T14:31:22.092Z,23.56
2023-01-13T14:33:48.505Z,23.80
2023-01-13T14:36:14.894Z,23.23
2023-01-13T14:38:41.289Z,23.28
2023-01-13T14:41:07.698Z,22.28
2023-01-13T14:43:34.089Z,22.42
2023-01-13T14:46:00.512Z,21.48
2023-01-13T14:48:26.938Z,21.88
2023-01-13T14:50:53.327Z,21.00
2023-01-13T14:53:19.723Z,21.19
2023-01-13T14:55:46.137Z,20.75
2023-01-13T14:58:12.545Z,20.34
2023-01-13T15:00:38.945Z,20.09
2023-01-13T15:03:05.379Z,18.96
2023-01-13T15:05:31.803Z,17.12
2023-01-13T15:07:58.180Z,16.30
2023-01-13T15:10:24.601Z,16.65
2023-01-13T15:12:50.986Z,16.76
2023-01-13T15:15:17.388Z,15.72
2023-01-13T15:17:43.869Z,16.20
2023-01-13T15:20:10.251Z,15.84
2023-01-13T15:22:36.634Z,15.44
2023-01-13T15:25:03.034Z,15.69
2023-01-13T15:27:29.450Z,15.57
2023-01-13T15:29:55.852Z,15.14
2023-01-13T15:32:22.244Z,15.04
2023-01-13T15:34:48.649Z,14.65
2023-01-13T15:37:15.049Z,14.76
2023-01-13T15:39:41.441Z,14.98
2023-01-13T15:42:07.873Z,13.97
2023-01-13T15:44:34.257Z,14.15
2023-01-13T15:47:00.672Z,13.94
2023-01-13T15:49:27.072Z,13.92
2023-01-13T15:51:53.466Z,13.14
2023-01-13T15:54:19.850Z,13.02
2023-01-13T15:56:46.258Z,12.86
2023-01-13T15:59:12.646Z,12.49
2023-01-13T16:01:39.052Z,13.06
2023-01-13T16:04:05.508Z,12.81
2023-01-13T16:06:31.906Z,12.19
2023-01-13T16:08:58.302Z,12.43
2023-01-13T16:11:24.689Z,12.18
2023-01-13T16:13:51.077Z,11.48
2023-01-13T16:16:17.506Z,11.09
2023-01-13T16:18:43.911Z,11.41
2023-01-13T16:21:10.347Z,11.52
2023-01-13T16:23:36.744Z,10.90
2023-01-13T16:26:03.222Z,11.06
2023-01-13T16:28:29.624Z,11.26
2023-01-13T16:30:56.013Z,10.77
2023-01-13T16:33:22.421Z,10.47
2023-01-13T16:36:10.484Z,10.34
2023-01-13T16:38:35.183Z,10.55
2023-01-13T16:41:01.626Z,10.28
2023-01-13T16:43:28.027Z,9.99
2023-01-13T16:45:54.505Z,10.07
2023-01-13T16:48:20.937Z,9.26
2023-01-13T16:50:47.313Z,9.74
2023-01-13T16:53:13.693Z,9.58
2023-01-13T16:55:40.078Z,9.97
2023-01-13T16:58:06.474Z,9.88
2023-01-13T17:00:32.854Z,9.95
2023-01-13T17:02:59.250Z,10.21
2023-01-13T17:05:25.694Z,10.60
2023-01-13T17:07:52.070Z,10.71
2023-01-13T17:10:18.483Z,11.04
2023-01-13T17:12:44.871Z,10.72
2023-01-13T17:15:11.277Z,10.99
2023-01-13T17:17:37.649Z,11.24
2023-01-13T17:20:04.041Z,11.29
2023-01-13T17:22:30.448Z,11.55
2023-01-13T17:24:56.833Z,12.03
2023-01-13T17:27:23.323Z,11.83
2023-01-13T17:29:49.722Z,11.71
2023-01-13T17:32:16.097Z,11.62
2023-01-13T17:34:42.616Z,11.66
2023-01-13T17:37:08.989Z,11.74
2023-01-13T17:39:35.354Z,11.84
2023-01-13T17:42:01.740Z,12.09
2023-01-13T17:44:28.128Z,11.97
2023-01-13T17:46:54.507Z,12.06
2023-01-13T17:49:20.913Z,11.78
2023-01-13T17:51:47.315Z,11.68
2023-01-13T17:54:13.679Z,12.08
2023-01-13T17:56:40.079Z,12.07
2023-01-13T17:59:06.474Z,12.80
2023-01-13T18:01:32.940Z,13.23
2023-01-13T18:03:59.425Z,14.01
2023-01-13T18:06:25.808Z,14.03
2023-01-13T18:08:52.197Z,14.56
2023-01-13T18:11:18.604Z,14.93
2023-01-13T18:13:44.988Z,16.19
2023-01-13T18:16:11.401Z,16.35
2023-01-13T18:18:37.795Z,17.02
2023-01-13T18:21:04.388Z,17.62
2023-01-13T18:23:30.824Z,19.13
2023-01-13T18:25:57.204Z,20.38
2023-01-13T18:28:23.609Z,22.09
2023-01-13T18:30:50.043Z,24.46
2023-01-13T18:33:16.448Z,25.73
2023-01-13T18:35:42.932Z,26.82
2023-01-13T18:38:09.315Z,28.54
2023-01-13T18:40:35.700Z,29.49
2023-01-13T18:43:02.174Z,30.22
2023-01-13T18:45:28.605Z,31.88
2023-01-13T18:47:55.014Z,31.36
2023-01-13T18:50:21.412Z,32.07
2023-01-13T18:52:47.790Z,33.72
2023-01-13T18:55:14.184Z,34.66
2023-01-13T18:57:40.573Z,34.94
2023-01-13T19:00:06.951Z,35.36
2023-01-13T19:02:33.402Z,36.32
2023-01-13T19:04:59.778Z,37.39
2023-01-13T19:07:26.205Z,38.96
2023-01-13T19:09:52.591Z,39.87
2023-01-13T19:12:18.997Z,41.79
2023-01-13T19:14:45.421Z,42.82
2023-01-13T19:17:11.814Z,43.87
2023-01-13T19:19:38.213Z,45.91
2023-01-13T19:22:04.603Z,47.36
2023-01-13T19:24:31.021Z,48.94
2023-01-13T19:26:57.424Z,50.84
2023-01-13T19:29:23.831Z,52.79
2023-01-13T19:31:50.229Z,54.02
2023-01-13T19:34:16.622Z,54.70
2023-01-13T19:36:43.067Z,55.76
2023-01-13T19:39:09.568Z,58.23
2023-01-13T19:41:35.991Z,58.72
2023-01-13T19:44:02.428Z,60.95
2023-01-13T19:46:28.849Z,61.95
2023-01-13T19:48:55.293Z,62.73
2023-01-13T19:51:21.673Z,64.19
2023-01-13T19:53:48.075Z,64.65
2023-01-13T19:56:14.480Z,63.83
2023-01-13T19:58:40.885Z,65.41
2023-01-13T20:01:07.314Z,66.00
2023-01-13T20:03:33.714Z,67.08
2023-01-13T20:06:00.122Z,67.12
2023-01-13T20:08:26.502Z,69.38
2023-01-13T20:10:52.896Z,70.72
2023-01-13T20:13:19.282Z,71.66
2023-01-13T20:15:45.683Z,73.04
2023-01-13T20:18:12.126Z,73.63
2023-01-13T20:20:38.538Z,73.00
2023-01-13T20:23:04.932Z,73.31
2023-01-13T20:25:31.474Z,71.96
2023-01-13T20:27:57.926Z,70.56
2023-01-13T20:30:24.335Z,70.73
2023-01-13T20:32:50.729Z,70.24
2023-01-13T20:35:17.166Z,73.06
2023-01-13T20:37:43.575Z,71.98
2023-01-13T20:40:09.968Z,71.65
2023-01-13T20:42:36.397Z,72.56
2023-01-13T20:45:02.775Z,71.73
2023-01-13T20:47:29.186Z,71.59
2023-01-13T20:49:55.821Z,69.56
2023-01-13T20:52:22.207Z,69.78
2023-01-13T20:54:48.583Z,71.22
2023-01-13T20:57:14.968Z,70.07
2023-01-13T20:59:41.367Z,70.95
2023-01-13T21:02:07.872Z,69.32
2023-01-13T21:04:34.282Z,70.31
2023-01-13T21:07:00.678Z,71.14
2023-01-13T21:09:27.073Z,69.55
2023-01-13T21:11:53.458Z,69.29
2023-01-13T21:14:19.844Z,69.88
2023-01-13T21:16:46.264Z,70.27
2023-01-13T21:19:12.656Z,69.79
2023-01-13T21:21:39.102Z,69.26
2023-01-13T21:24:05.503Z,68.68
2023-01-13T21:26:31.886Z,68.19
2023-01-13T21:28:58.297Z,67.57
2023-01-13T21:31:26.825Z,67.95
2023-01-13T21:33:53.365Z,66.61
2023-01-13T21:36:19.764Z,65.64
2023-01-13T21:38:46.135Z,64.41
2023-01-13T21:41:12.528Z,64.47
2023-01-13T21:43:38.928Z,64.25
2023-01-13T21:46:05.699Z,63.76
2023-01-13T21:48:32.155Z,62.33
2023-01-13T21:50:58.540Z,61.58
2023-01-13T21:53:24.962Z,60.23
2023-01-13T21:55:51.387Z,58.97
2023-01-13T21:58:17.781Z,58.61
2023-01-13T22:00:44.203Z,56.57
2023-01-13T22:03:10.618Z,56.05
2023-01-13T22:05:36.986Z,54.62
2023-01-13T22:08:03.394Z,54.38
2023-01-13T22:10:29.826Z,54.51
2023-01-13T22:12:56.210Z,54.32
2023-01-13T22:15:22.601Z,53.31
2023-01-13T22:17:49.007Z,52.48
2023-01-13T22:20:15.410Z,51.90
2023-01-13T22:22:41.800Z,51.47
2023-01-13T22:25:08.186Z,50.83
2023-01-13T22:27:34.564Z,50.35
2023-01-13T22:30:00.939Z,48.94
2023-01-13T22:32:27.337Z,48.27
2023-01-13T22:34:53.722Z,48.32
2023-01-13T22:37:20.125Z,47.62
2023-01-13T22:39:46.520Z,47.56
2023-01-13T22:42:12.928Z,47.96
2023-01-13T22:44:39.331Z,47.79
2023-01-13T22:47:05.706Z,46.08
2023-01-13T22:49:32.095Z,47.36
2023-01-13T22:51:58.482Z,45.42
2023-01-13T22:54:24.873Z,45.62
2023-01-13T22:56:51.272Z,44.58
2023-01-13T22:59:17.693Z,45.03
2023-01-13T23:01:44.073Z,44.58
2023-01-13T23:04:10.543Z,43.50
2023-01-13T23:06:36.958Z,43.61
2023-01-13T23:09:03.347Z,43.05
2023-01-13T23:11:29.738Z,42.96
2023-01-13T23:13:56.134Z,42.96
2023-01-13T23:16:22.634Z,41.42
2023-01-13T23:18:49.044Z,41.27
2023-01-13T23:21:15.439Z,40.73
2023-01-13T23:23:41.836Z,40.38
2023-01-13T23:26:08.225Z,40.21
2023-01-13T23:28:34.619Z,39.42
2023-01-13T23:31:01.246Z,38.37
2023-01-13T23:33:27.687Z,37.99
2023-01-13T23:35:54.072Z,37.47
2023-01-13T23:38:20.462Z,37.29
2023-01-13T23:40:46.863Z,37.04
2023-01-13T23:43:13.265Z,36.80
2023-01-13T23:45:39.656Z,35.89
2023-01-13T23:48:06.037Z,35.77
2023-01-13T23:50:32.429Z,34.75
2023-01-13T23:52:58.837Z,34.15
2023-01-13T23:55:25.225Z,33.63
2023-01-13T23:57:51.630Z,34.31
